Time;durP1;ratioP1;P1;durP2;ratioP2;P2;SDS_P1;SDS_P2;PMS_P1;PMS_P2;Temp;Humidity;BMP_temperature;BMP_pressure;BME280_temperature;BME280_humidity;BME280_pressure;Samples;Min_cycle;Max_cycle;Signal;HPM_P1;HPM_P2
2022/07/06 00:02:14;;;;;;;7.50;2.67;;;15.40;99.90;;;;;;4990641;28;20659;-83
2022/07/06 00:04:40;;;;;;;7.80;2.83;;;15.50;99.90;;;;;;4975497;28;20193;-85
2022/07/06 00:07:05;;;;;;;6.03;3.13;;;15.40;99.90;;;;;;4990226;28;20675;-85
2022/07/06 00:09:32;;;;;;;5.97;2.90;;;15.40;99.90;;;;;;4976230;28;20210;-83
2022/07/06 00:11:57;;;;;;;3.07;2.67;;;15.40;99.90;;;;;;4973828;28;20189;-84
2022/07/06 00:14:23;;;;;;;4.50;2.60;;;15.40;99.90;;;;;;4992700;28;20440;-85
2022/07/06 00:16:49;;;;;;;3.00;2.70;;;15.40;99.90;;;;;;4990757;28;20182;-84
2022/07/06 00:19:14;;;;;;;5.40;2.63;;;15.40;99.90;;;;;;4991053;28;20210;-85
2022/07/06 00:21:40;;;;;;;4.97;2.67;;;15.40;99.90;;;;;;4992446;28;20187;-84
2022/07/06 00:24:06;;;;;;;5.13;3.20;;;15.30;99.90;;;;;;4992562;28;20187;-85
2022/07/06 00:26:31;;;;;;;6.27;3.37;;;15.30;99.90;;;;;;4992190;28;20708;-85
2022/07/06 00:28:57;;;;;;;4.10;2.80;;;15.20;99.90;;;;;;4990012;28;20584;-85
2022/07/06 00:31:22;;;;;;;3.37;2.60;;;15.20;99.90;;;;;;4994342;28;20741;-85
2022/07/06 00:33:48;;;;;;;5.30;2.80;;;15.20;99.90;;;;;;4974852;28;20185;-85
2022/07/06 00:36:13;;;;;;;3.73;2.93;;;15.10;99.90;;;;;;4990155;28;20672;-85
2022/07/06 00:38:39;;;;;;;3.73;2.87;;;15.10;99.90;;;;;;4992552;28;20225;-85
2022/07/06 00:41:04;;;;;;;4.37;3.17;;;15.00;99.90;;;;;;4989992;28;20261;-85
2022/07/06 00:43:56;;;;;;;4.83;3.00;;;15.10;99.90;;;;;;4993440;28;20195;-86
2022/07/06 00:46:32;;;;;;;5.23;3.10;;;15.00;99.90;;;;;;4978427;28;20238;-84
2022/07/06 00:48:58;;;;;;;4.00;3.10;;;15.00;99.90;;;;;;4996722;28;20484;-84
2022/07/06 00:51:30;;;;;;;3.73;3.23;;;15.00;99.90;;;;;;4994253;28;20528;-83
2022/07/06 00:54:00;;;;;;;5.57;2.97;;;14.90;99.90;;;;;;4990176;28;20431;-85
2022/07/06 00:56:28;;;;;;;4.97;3.37;;;14.90;99.90;;;;;;4990913;28;20461;-85
2022/07/06 00:58:54;;;;;;;9.03;4.10;;;14.90;99.90;;;;;;4991535;28;20463;-84
2022/07/06 01:01:19;;;;;;;6.50;3.70;;;14.90;99.90;;;;;;4989529;28;20535;-85
2022/07/06 01:03:45;;;;;;;7.10;3.53;;;14.80;99.90;;;;;;4988894;28;20579;-84
2022/07/06 01:06:11;;;;;;;5.30;3.80;;;14.80;99.90;;;;;;4988353;28;20671;-84
2022/07/06 01:08:38;;;;;;;7.03;4.13;;;14.80;99.90;;;;;;4988905;28;20190;-84
2022/07/06 01:11:03;;;;;;;8.77;4.33;;;14.80;99.90;;;;;;4981588;28;20499;-84
2022/07/06 01:13:30;;;;;;;6.17;3.97;;;14.80;99.90;;;;;;4991105;28;20476;-84
2022/07/06 01:15:56;;;;;;;5.33;3.50;;;14.80;99.90;;;;;;4990076;28;20195;-87
2022/07/06 01:18:22;;;;;;;5.50;3.90;;;14.80;99.90;;;;;;4986851;28;20503;-84
2022/07/06 01:20:47;;;;;;;4.57;4.03;;;14.80;99.90;;;;;;4990262;28;20670;-84
2022/07/06 01:23:13;;;;;;;5.37;3.60;;;14.80;99.90;;;;;;4990382;28;20193;-84
2022/07/06 01:25:39;;;;;;;7.70;4.20;;;14.70;99.90;;;;;;4990782;28;20540;-85
2022/07/06 01:28:05;;;;;;;5.00;4.43;;;14.70;99.90;;;;;;4989781;28;20439;-86
2022/07/06 01:30:30;;;;;;;5.33;4.27;;;14.70;99.90;;;;;;4990686;28;20217;-84
2022/07/06 01:32:56;;;;;;;5.83;4.13;;;14.70;99.90;;;;;;4991646;28;20438;-84
2022/07/06 01:35:24;;;;;;;10.10;4.83;;;14.60;99.90;;;;;;4991626;28;20286;-85
2022/07/06 01:37:49;;;;;;;11.80;4.67;;;14.60;99.90;;;;;;4992799;28;20212;-85
2022/07/06 01:40:15;;;;;;;4.93;3.30;;;14.60;99.90;;;;;;4988749;28;20482;-83
2022/07/06 01:42:41;;;;;;;7.40;4.20;;;14.50;99.90;;;;;;4990311;28;20185;-83
2022/07/06 01:45:07;;;;;;;4.93;3.77;;;14.50;99.90;;;;;;4975535;28;20196;-84
2022/07/06 01:47:33;;;;;;;5.33;4.83;;;14.50;99.90;;;;;;4990528;28;20227;-85
2022/07/06 01:50:00;;;;;;;4.83;4.30;;;14.50;99.90;;;;;;4992089;28;20502;-86
2022/07/06 01:52:26;;;;;;;5.73;4.53;;;14.50;99.90;;;;;;4993689;28;20213;-83
2022/07/06 01:54:52;;;;;;;4.33;3.93;;;14.50;99.90;;;;;;4994048;28;20465;-85
2022/07/06 01:57:17;;;;;;;10.77;5.13;;;14.50;99.90;;;;;;4995238;28;20436;-84
2022/07/06 01:59:43;;;;;;;5.43;4.93;;;14.40;99.90;;;;;;4994360;28;20249;-85
2022/07/06 02:02:09;;;;;;;6.80;4.20;;;14.40;99.90;;;;;;4992144;28;20631;-83
2022/07/06 02:04:35;;;;;;;4.53;4.13;;;14.40;99.90;;;;;;4994261;28;20224;-83
2022/07/06 02:07:01;;;;;;;5.53;3.97;;;14.30;99.90;;;;;;4993369;28;20527;-84
2022/07/06 02:09:27;;;;;;;6.90;5.37;;;14.30;99.90;;;;;;4993765;28;20274;-84
2022/07/06 02:11:52;;;;;;;5.43;4.00;;;14.30;1.00;;;;;;4975229;28;20510;-84
2022/07/06 02:14:18;;;;;;;6.50;5.10;;;14.20;1.00;;;;;;4991690;28;20210;-83
2022/07/06 02:16:43;;;;;;;6.23;4.03;;;14.10;1.00;;;;;;4992852;28;20183;-85
2022/07/06 02:19:09;;;;;;;5.20;4.17;;;14.10;1.00;;;;;;4990035;28;20223;-84
2022/07/06 02:21:34;;;;;;;4.30;3.90;;;14.00;1.00;;;;;;4994275;28;20194;-84
2022/07/06 02:24:00;;;;;;;6.33;4.30;;;13.90;1.00;;;;;;4992476;28;20188;-85
2022/07/06 02:26:26;;;;;;;6.33;5.20;;;13.90;1.00;;;;;;4992108;28;20265;-83
2022/07/06 02:28:52;;;;;;;5.83;5.33;;;13.90;1.00;;;;;;4991937;28;20467;-84
2022/07/06 02:31:17;;;;;;;10.00;5.73;;;13.90;1.00;;;;;;4992688;28;20256;-85
2022/07/06 02:33:43;;;;;;;5.63;5.13;;;13.90;1.00;;;;;;4992763;28;20185;-84
2022/07/06 02:36:08;;;;;;;5.63;5.07;;;13.90;1.00;;;;;;4992500;28;20197;-84
2022/07/06 02:38:34;;;;;;;7.97;5.20;;;13.90;1.00;;;;;;4993989;28;20216;-84
2022/07/06 02:40:59;;;;;;;7.93;4.50;;;13.90;1.00;;;;;;4993352;28;20262;-83
2022/07/06 02:43:25;;;;;;;5.27;4.30;;;13.90;1.00;;;;;;4989513;28;20705;-84
2022/07/06 02:45:51;;;;;;;7.63;4.93;;;13.90;1.00;;;;;;4980301;28;20184;-85
2022/07/06 02:48:17;;;;;;;6.03;5.03;;;13.90;1.00;;;;;;4991162;28;20283;-83
2022/07/06 02:50:43;;;;;;;7.53;4.63;;;13.90;1.00;;;;;;4991188;28;20773;-83
2022/07/06 02:53:08;;;;;;;7.07;5.47;;;13.80;1.00;;;;;;4987008;28;20525;-83
2022/07/06 02:55:34;;;;;;;12.30;5.20;;;13.80;1.00;;;;;;4991239;28;20223;-84
2022/07/06 02:57:59;;;;;;;5.43;4.87;;;13.80;1.00;;;;;;4991127;28;20215;-83
2022/07/06 03:00:25;;;;;;;7.10;4.77;;;13.70;6.30;;;;;;4988037;28;20204;-84
2022/07/06 03:02:51;;;;;;;8.40;5.67;;;13.70;41.40;;;;;;4990144;28;20188;-83
2022/07/06 03:05:16;;;;;;;6.57;5.87;;;13.70;99.90;;;;;;4974722;28;20187;-84
2022/07/06 03:07:42;;;;;;;5.83;5.23;;;13.70;99.90;;;;;;4991042;28;20204;-85
2022/07/06 03:10:07;;;;;;;8.10;5.50;;;13.70;99.90;;;;;;4991300;28;20223;-83
2022/07/06 03:12:33;;;;;;;7.83;5.50;;;13.70;99.90;;;;;;4988496;28;20694;-84
2022/07/06 03:14:58;;;;;;;8.03;5.30;;;13.60;99.90;;;;;;4992771;28;20240;-83
2022/07/06 03:17:24;;;;;;;8.60;5.93;;;13.60;99.90;;;;;;4990944;28;20197;-83
2022/07/06 03:19:50;;;;;;;7.17;5.80;;;13.70;99.90;;;;;;4977211;28;20282;-84
2022/07/06 03:22:15;;;;;;;10.00;4.80;;;13.60;99.90;;;;;;4990602;28;20188;-84
2022/07/06 03:24:41;;;;;;;8.80;5.10;;;13.60;99.90;;;;;;4995163;28;20267;-86
2022/07/06 03:27:06;;;;;;;9.20;5.23;;;13.60;99.90;;;;;;4977101;28;20637;-84
2022/07/06 03:29:32;;;;;;;9.13;5.23;;;13.60;99.90;;;;;;4992301;28;20214;-83
2022/07/06 03:31:57;;;;;;;5.80;5.20;;;13.60;99.90;;;;;;4990153;28;20626;-83
2022/07/06 03:34:23;;;;;;;12.77;5.80;;;13.60;99.90;;;;;;4992784;28;20196;-85
2022/07/06 03:36:48;;;;;;;6.53;5.60;;;13.60;99.90;;;;;;4992808;28;20563;-84
2022/07/06 03:39:14;;;;;;;7.87;6.00;;;13.60;99.90;;;;;;4991340;28;20263;-87
2022/07/06 03:41:39;;;;;;;6.63;5.83;;;13.60;99.90;;;;;;4974829;28;20202;-84
2022/07/06 03:44:05;;;;;;;7.73;6.60;;;13.60;99.90;;;;;;4990217;28;20638;-87
2022/07/06 03:46:30;;;;;;;6.47;5.83;;;13.60;99.90;;;;;;4991727;28;20186;-83
2022/07/06 03:48:56;;;;;;;7.70;6.30;;;13.60;99.90;;;;;;4990925;28;20223;-84
2022/07/06 03:51:23;;;;;;;9.27;6.00;;;13.60;1.00;;;;;;4992943;28;20279;-85
2022/07/06 03:53:48;;;;;;;11.43;7.07;;;13.60;1.00;;;;;;5031004;22;20521;-81
2022/07/06 03:56:29;;;;;;;12.17;7.10;;;13.60;1.00;;;;;;5022996;28;20790;-81
2022/07/06 03:58:56;;;;;;;10.73;6.20;;;13.60;1.00;;;;;;5025650;28;20208;-79
2022/07/06 04:01:22;;;;;;;9.47;6.10;;;13.60;1.00;;;;;;5029921;28;20441;-81
2022/07/06 04:03:48;;;;;;;6.80;6.10;;;13.60;1.00;;;;;;5018586;28;20954;-80
2022/07/06 04:06:13;;;;;;;6.87;5.77;;;13.60;1.00;;;;;;5004302;28;20528;-80
2022/07/06 04:08:39;;;;;;;9.63;7.40;;;13.60;1.00;;;;;;5002041;28;20187;-82
2022/07/06 04:11:05;;;;;;;7.67;5.80;;;13.60;1.00;;;;;;5011420;28;20188;-81
2022/07/06 04:13:30;;;;;;;9.43;6.83;;;13.70;1.00;;;;;;5009220;28;20220;-81
2022/07/06 04:15:56;;;;;;;8.97;6.90;;;13.70;1.00;;;;;;5004842;28;20188;-81
2022/07/06 04:18:21;;;;;;;7.80;6.43;;;13.70;1.00;;;;;;5001214;28;20211;-81
2022/07/06 04:20:47;;;;;;;9.47;6.77;;;13.80;1.00;;;;;;5008663;28;20663;-81
2022/07/06 04:23:12;;;;;;;12.40;7.10;;;13.80;1.00;;;;;;5005441;28;20353;-82
2022/07/06 04:25:38;;;;;;;8.00;6.50;;;13.90;1.00;;;;;;5003484;28;20229;-80
2022/07/06 04:28:04;;;;;;;8.67;6.20;;;14.00;1.00;;;;;;5004700;28;20270;-79
2022/07/06 04:30:30;;;;;;;11.60;6.97;;;14.00;1.00;;;;;;5009230;28;20219;-80
2022/07/06 04:32:56;;;;;;;14.50;6.13;;;14.10;1.00;;;;;;5010344;28;20562;-81
2022/07/06 04:35:21;;;;;;;7.83;7.13;;;14.10;1.00;;;;;;5006030;28;20441;-82
2022/07/06 04:37:47;;;;;;;14.77;7.70;;;14.20;99.90;;;;;;5009088;28;20435;-81
2022/07/06 04:40:13;;;;;;;9.23;7.00;;;14.30;99.90;;;;;;5013768;28;20215;-83
2022/07/06 04:42:39;;;;;;;10.73;7.00;;;14.30;99.90;;;;;;5009009;28;20190;-81
2022/07/06 04:45:05;;;;;;;8.00;7.20;;;14.40;99.90;;;;;;5011068;28;20459;-82
2022/07/06 04:47:31;;;;;;;17.03;6.70;;;14.50;99.90;;;;;;5009294;28;20187;-83
2022/07/06 04:49:56;;;;;;;7.77;6.93;;;14.60;99.90;;;;;;5004862;28;20451;-81
2022/07/06 04:52:22;;;;;;;11.43;6.40;;;14.70;99.90;;;;;;5010370;28;20185;-82
2022/07/06 04:54:47;;;;;;;9.70;6.73;;;14.70;99.90;;;;;;5012347;28;20723;-82
2022/07/06 04:57:13;;;;;;;7.60;6.57;;;14.80;99.90;;;;;;5007740;28;20301;-82
2022/07/06 04:59:39;;;;;;;8.60;6.50;;;14.90;99.90;;;;;;5008412;28;20228;-83
2022/07/06 05:02:04;;;;;;;12.00;6.33;;;15.00;99.90;;;;;;5007589;28;20180;-83
2022/07/06 05:04:30;;;;;;;7.77;6.80;;;15.10;99.90;;;;;;5006336;28;20273;-83
2022/07/06 05:06:55;;;;;;;10.17;6.53;;;15.10;69.30;;;;;;5010903;28;20182;-84
2022/07/06 05:09:21;;;;;;;7.40;5.60;;;15.20;29.50;;;;;;5006347;28;20230;-81
2022/07/06 05:11:47;;;;;;;7.77;5.90;;;15.20;11.60;;;;;;5003469;28;20204;-82
2022/07/06 05:14:12;;;;;;;9.03;6.30;;;15.30;1.00;;;;;;5008834;28;20205;-83
2022/07/06 05:16:38;;;;;;;14.90;7.00;;;15.40;1.00;;;;;;5008001;28;20542;-83
2022/07/06 05:19:03;;;;;;;8.90;6.83;;;15.50;1.00;;;;;;5012087;28;20204;-82
2022/07/06 05:21:29;;;;;;;9.53;6.20;;;15.60;1.00;;;;;;5012553;28;20269;-83
2022/07/06 05:23:54;;;;;;;7.40;6.60;;;15.80;1.00;;;;;;5010105;28;20213;-82
2022/07/06 05:26:20;;;;;;;7.20;6.50;;;15.90;1.00;;;;;;5014582;28;20205;-82
2022/07/06 05:28:45;;;;;;;10.80;7.87;;;16.20;1.00;;;;;;5015475;28;20186;-83
2022/07/06 05:31:11;;;;;;;9.20;6.60;;;16.30;1.00;;;;;;5015742;28;20193;-83
2022/07/06 05:33:36;;;;;;;10.13;7.00;;;16.50;1.00;;;;;;5014545;28;20220;-82
2022/07/06 05:36:02;;;;;;;7.83;6.30;;;16.60;1.00;;;;;;5013251;28;20659;-83
2022/07/06 05:38:28;;;;;;;9.87;6.43;;;16.60;1.00;;;;;;5012129;28;20218;-83
2022/07/06 05:40:53;;;;;;;7.70;6.60;;;16.70;1.00;;;;;;5010734;28;20242;-83
2022/07/06 05:43:19;;;;;;;9.27;6.50;;;16.80;1.00;;;;;;5009897;28;20671;-82
2022/07/06 05:45:44;;;;;;;6.70;6.00;;;16.90;1.00;;;;;;5012978;28;20241;-83
2022/07/06 05:50:54;;;;;;;8.43;5.00;;;17.10;1.00;;;;;;5013591;28;20301;-83
2022/07/06 05:53:19;;;;;;;8.40;5.50;;;17.10;99.90;;;;;;5015040;28;20968;-82
2022/07/06 05:55:46;;;;;;;8.10;5.70;;;17.30;99.90;;;;;;5014345;28;20192;-83
2022/07/06 05:58:11;;;;;;;7.60;4.93;;;17.40;99.90;;;;;;5011677;28;20241;-83
2022/07/06 06:00:37;;;;;;;9.73;5.20;;;17.50;99.90;;;;;;5012920;28;20935;-82
2022/07/06 06:03:03;;;;;;;9.30;5.50;;;17.60;99.90;;;;;;5011046;28;20680;-84
2022/07/06 06:05:29;;;;;;;8.57;4.83;;;17.80;99.90;;;;;;5010055;28;20318;-83
2022/07/06 06:07:54;;;;;;;6.90;5.63;;;18.00;99.90;;;;;;5009861;28;20478;-83
2022/07/06 06:10:21;;;;;;;7.37;4.73;;;18.40;99.90;;;;;;5010385;28;20611;-83
2022/07/06 06:12:47;;;;;;;6.20;4.70;;;18.90;99.90;;;;;;5014219;28;20218;-83
2022/07/06 06:15:13;;;;;;;8.50;5.10;;;19.90;99.90;;;;;;5008875;28;20453;-82
2022/07/06 06:17:39;;;;;;;6.67;4.27;;;22.30;99.90;;;;;;5010284;28;20504;-83
2022/07/06 06:20:07;;;;;;;4.60;3.10;;;26.70;99.90;;;;;;5009506;28;20191;-81
2022/07/06 06:22:56;;;;;;;4.20;3.77;;;30.60;99.90;;;;;;5012965;28;20521;-82
2022/07/06 06:25:29;;;;;;;3.33;3.03;;;31.70;99.90;;;;;;5011436;28;20802;-83
2022/07/06 06:27:55;;;;;;;2.93;2.63;;;35.60;99.90;;;;;;5013980;28;20448;-82
2022/07/06 06:30:21;;;;;;;3.33;2.60;;;38.20;99.90;;;;;;5008769;28;20466;-82
2022/07/06 06:32:47;;;;;;;3.40;2.70;;;40.30;99.90;;;;;;5011564;28;20193;-82
2022/07/06 06:35:12;;;;;;;4.73;3.07;;;41.90;99.90;;;;;;5015960;28;20222;-83
2022/07/06 06:37:38;;;;;;;3.20;2.50;;;42.40;99.90;;;;;;5013556;28;20214;-83
2022/07/06 06:40:05;;;;;;;3.60;1.90;;;43.20;99.90;;;;;;5007827;28;20271;-83
2022/07/06 06:42:31;;;;;;;2.30;1.50;;;45.00;96.70;;;;;;5007271;28;20210;-82
2022/07/06 06:44:57;;;;;;;2.60;1.40;;;46.40;92.30;;;;;;5001684;28;20496;-82
2022/07/06 06:47:23;;;;;;;3.57;1.50;;;45.80;78.70;;;;;;5016898;28;20417;-83
2022/07/06 06:49:48;;;;;;;2.60;1.10;;;44.70;63.30;;;;;;5009226;28;20280;-82
2022/07/06 06:52:14;;;;;;;1.33;0.90;;;43.80;53.10;;;;;;5012717;28;20690;-82
2022/07/06 06:54:39;;;;;;;4.73;1.20;;;44.40;50.70;;;;;;5011645;28;20664;-83
2022/07/06 06:57:05;;;;;;;3.20;1.50;;;45.60;48.40;;;;;;5009980;28;20184;-83
2022/07/06 06:59:31;;;;;;;3.00;1.37;;;42.60;37.10;;;;;;5006551;28;20841;-82
2022/07/06 07:01:56;;;;;;;4.30;1.83;;;39.50;29.40;;;;;;5007032;28;20184;-83
2022/07/06 07:04:22;;;;;;;2.67;1.00;;;41.10;34.50;;;;;;5015917;28;20217;-83
2022/07/06 07:06:48;;;;;;;1.80;1.03;;;38.40;25.50;;;;;;5007429;28;20270;-82
2022/07/06 07:09:13;;;;;;;2.83;1.20;;;34.90;19.00;;;;;;5011613;28;20590;-82
2022/07/06 07:11:39;;;;;;;3.53;1.20;;;31.60;13.20;;;;;;5010148;28;20175;-82
2022/07/06 07:14:04;;;;;;;5.80;1.20;;;29.00;8.50;;;;;;5010058;28;20203;-82
2022/07/06 07:16:30;;;;;;;3.50;1.30;;;27.00;1.90;;;;;;5015489;28;20674;-86
2022/07/06 07:18:56;;;;;;;4.03;1.73;;;25.50;1.00;;;;;;5004423;28;20184;-82
2022/07/06 07:21:21;;;;;;;3.00;1.23;;;25.70;4.40;;;;;;5007175;28;20273;-83
2022/07/06 07:23:48;;;;;;;3.77;1.40;;;26.30;7.00;;;;;;5003160;28;20199;-83
2022/07/06 07:26:14;;;;;;;3.90;1.40;;;29.50;15.50;;;;;;5014547;28;20840;-83
2022/07/06 07:28:39;;;;;;;3.50;1.10;;;35.80;31.30;;;;;;5007026;28;20553;-83
2022/07/06 07:31:05;;;;;;;2.77;1.27;;;35.00;27.10;;;;;;5006731;28;20182;-82
2022/07/06 07:33:30;;;;;;;5.30;1.20;;;33.00;20.50;;;;;;5005590;28;20318;-82
2022/07/06 07:35:56;;;;;;;1.97;1.30;;;34.00;23.90;;;;;;5004107;28;20191;-83
2022/07/06 07:38:22;;;;;;;5.20;1.10;;;34.40;24.80;;;;;;5005606;28;20190;-83
2022/07/06 07:40:47;;;;;;;4.73;1.20;;;33.70;22.90;;;;;;5013645;28;20335;-83
2022/07/06 07:43:13;;;;;;;2.37;1.30;;;33.10;21.00;;;;;;5011956;28;20210;-82
2022/07/06 07:45:39;;;;;;;4.23;1.20;;;31.50;16.50;;;;;;5013603;28;20336;-81
2022/07/06 07:48:05;;;;;;;3.17;1.00;;;30.20;22.80;;;;;;5008890;28;20237;-82
2022/07/06 07:50:30;;;;;;;4.30;1.00;;;28.40;9.90;;;;;;5011683;28;20433;-83
2022/07/06 07:52:56;;;;;;;2.03;1.00;;;26.60;6.60;;;;;;5013186;28;20438;-81
2022/07/06 07:55:21;;;;;;;2.03;1.20;;;25.40;5.00;;;;;;5011525;28;20558;-82
2022/07/06 07:57:47;;;;;;;4.83;1.20;;;24.50;4.20;;;;;;5001841;28;20267;-83
2022/07/06 08:00:13;;;;;;;5.60;1.50;;;23.80;4.60;;;;;;5010278;28;20564;-83
2022/07/06 08:02:39;;;;;;;2.20;1.10;;;23.20;4.50;;;;;;5013104;28;20554;-82
2022/07/06 08:05:05;;;;;;;2.60;0.90;;;22.60;5.00;;;;;;5009314;28;20448;-82
2022/07/06 08:07:30;;;;;;;2.50;1.10;;;22.20;5.70;;;;;;5010876;28;20189;-82
2022/07/06 08:09:56;;;;;;;3.60;1.60;;;21.80;7.00;;;;;;5010867;28;20841;-83
2022/07/06 08:12:21;;;;;;;4.30;1.40;;;21.60;7.80;;;;;;5013183;28;20194;-82
2022/07/06 08:14:47;;;;;;;2.60;1.20;;;21.40;9.30;;;;;;5009957;28;20203;-82
2022/07/06 08:17:13;;;;;;;2.40;1.00;;;21.40;11.20;;;;;;5012600;28;20193;-82
2022/07/06 08:19:38;;;;;;;1.73;1.40;;;21.40;12.80;;;;;;5010989;28;20250;-81
2022/07/06 08:22:07;;;;;;;2.83;1.20;;;21.50;15.40;;;;;;5003132;28;20279;-82
2022/07/06 08:24:34;;;;;;;3.33;1.27;;;21.70;17.10;;;;;;5012667;28;20220;-82
2022/07/06 08:27:00;;;;;;;3.30;1.00;;;21.80;18.10;;;;;;5005073;28;20525;-81
2022/07/06 08:29:26;;;;;;;4.77;1.13;;;21.90;19.40;;;;;;5013589;28;20489;-82
2022/07/06 08:31:51;;;;;;;1.97;1.10;;;22.00;20.40;;;;;;5012024;28;20256;-83
2022/07/06 08:34:17;;;;;;;3.23;1.20;;;22.00;22.50;;;;;;5013091;28;20204;-82
2022/07/06 08:36:42;;;;;;;2.30;1.00;;;21.90;23.30;;;;;;5007818;28;20195;-82
2022/07/06 08:39:08;;;;;;;4.33;1.20;;;22.00;24.60;;;;;;5013155;28;20181;-82
2022/07/06 08:41:36;;;;;;;2.50;1.27;;;22.50;26.10;;;;;;5009856;28;20547;-83
2022/07/06 08:44:02;;;;;;;2.67;1.30;;;23.70;29.40;;;;;;5002544;28;20826;-81
2022/07/06 08:46:31;;;;;;;3.30;1.10;;;25.10;35.50;;;;;;5008489;28;20533;-80
2022/07/06 08:48:57;;;;;;;2.63;1.00;;;26.00;37.60;;;;;;5011747;28;20461;-81
2022/07/06 08:51:24;;;;;;;2.40;1.27;;;26.20;40.30;;;;;;5009749;28;20512;-81
2022/07/06 08:53:51;;;;;;;3.20;1.00;;;26.00;34.80;;;;;;5012729;28;20207;-80
2022/07/06 08:56:18;;;;;;;2.07;1.37;;;25.70;33.70;;;;;;5010640;28;20437;-81
2022/07/06 08:58:44;;;;;;;2.30;0.93;;;25.60;30.90;;;;;;5010857;28;20477;-83
2022/07/06 09:01:10;;;;;;;3.00;1.07;;;25.50;30.90;;;;;;5012437;28;20590;-82
2022/07/06 09:03:38;;;;;;;4.33;1.07;;;25.70;30.60;;;;;;5010360;28;20238;-80
2022/07/06 09:06:06;;;;;;;3.07;1.10;;;26.80;35.30;;;;;;5010012;28;20431;-80
2022/07/06 09:08:32;;;;;;;2.47;0.90;;;27.90;38.70;;;;;;5007899;28;20549;-80
2022/07/06 09:10:58;;;;;;;2.90;0.90;;;32.30;54.10;;;;;;5004401;28;20440;-82
2022/07/06 09:13:24;;;;;;;3.40;1.30;;;35.80;59.60;;;;;;5001770;28;20857;-82
2022/07/06 09:15:49;;;;;;;5.27;1.07;;;39.10;62.80;;;;;;5013138;28;20171;-82
2022/07/06 09:18:15;;;;;;;3.57;0.83;;;41.40;59.50;;;;;;5014191;28;20560;-82
2022/07/06 09:20:41;;;;;;;1.87;0.70;;;43.30;55.20;;;;;;5010070;28;20217;-83
2022/07/06 09:23:07;;;;;;;2.60;0.77;;;40.40;40.00;;;;;;5007767;28;20615;-81
2022/07/06 09:25:34;;;;;;;2.87;0.77;;;37.40;29.60;;;;;;5009893;28;20472;-80
2022/07/06 09:28:00;;;;;;;2.40;0.83;;;34.90;23.60;;;;;;5002145;28;20175;-81
2022/07/06 09:30:27;;;;;;;2.60;0.90;;;32.70;17.70;;;;;;5013841;28;20492;-80
2022/07/06 09:32:57;;;;;;;3.07;1.03;;;31.00;13.80;;;;;;5006237;28;20428;-81
2022/07/06 09:35:31;;;;;;;4.10;1.27;;;29.50;10.90;;;;;;5008098;28;20466;-80
2022/07/06 09:38:05;;;;;;;2.63;0.93;;;28.70;9.40;;;;;;5007731;28;20426;-80
2022/07/06 09:40:33;;;;;;;2.63;0.90;;;28.20;9.60;;;;;;5012719;28;20448;-80
2022/07/06 09:43:13;;;;;;;2.10;1.07;;;27.80;9.30;;;;;;5007443;28;20422;-81
2022/07/06 09:45:41;;;;;;;2.13;0.90;;;29.60;14.30;;;;;;5010928;28;20417;-82
2022/07/06 09:48:11;;;;;;;1.53;0.70;;;30.00;14.90;;;;;;5012801;28;20906;-81
2022/07/06 09:50:43;;;;;;;2.00;0.73;;;30.10;15.00;;;;;;4999085;28;20438;-80
2022/07/06 09:53:19;;;;;;;2.13;0.80;;;32.20;20.80;;;;;;5010443;28;20873;-80
2022/07/06 09:55:50;;;;;;;1.10;0.60;;;34.50;26.80;;;;;;5009354;28;20504;-81
2022/07/06 09:58:16;;;;;;;3.60;0.73;;;36.20;29.40;;;;;;5010013;28;20414;-81
2022/07/06 10:00:44;;;;;;;1.83;0.83;;;37.60;29.60;;;;;;5008636;28;20464;-82
2022/07/06 10:03:10;;;;;;;3.70;0.70;;;38.60;29.00;;;;;;4999528;28;20514;-82
2022/07/06 10:05:42;;;;;;;4.00;0.80;;;39.00;26.20;;;;;;5007318;28;20423;-81
2022/07/06 10:08:09;;;;;;;1.47;0.70;;;39.80;25.70;;;;;;5012724;28;20449;-82
2022/07/06 10:10:36;;;;;;;2.57;0.80;;;40.20;23.70;;;;;;5019934;28;20428;-82
2022/07/06 10:13:05;;;;;;;1.40;0.60;;;40.60;22.30;;;;;;5005558;28;20879;-82
2022/07/06 10:15:32;;;;;;;2.37;0.70;;;40.50;20.30;;;;;;5017006;28;20429;-82
2022/07/06 10:18:02;;;;;;;2.90;0.70;;;40.60;19.80;;;;;;5011869;28;20425;-82
2022/07/06 10:20:31;;;;;;;1.63;0.87;;;40.80;17.90;;;;;;5022244;28;20967;-82
2022/07/06 10:22:59;;;;;;;1.80;0.67;;;39.70;14.10;;;;;;5020902;28;20456;-82
2022/07/06 10:25:26;;;;;;;3.10;0.80;;;38.50;11.40;;;;;;5015708;28;20433;-83
2022/07/06 10:27:52;;;;;;;1.40;0.70;;;37.40;8.80;;;;;;5020837;28;20444;-81
2022/07/06 10:30:18;;;;;;;3.37;0.90;;;36.40;6.60;;;;;;5022712;28;20477;-81
2022/07/06 10:32:48;;;;;;;6.43;1.10;;;35.10;3.60;;;;;;5013011;28;20426;-81
2022/07/06 10:35:14;;;;;;;1.40;0.80;;;34.20;2.40;;;;;;5019053;28;20191;-82
2022/07/06 10:37:40;;;;;;;3.53;0.90;;;33.10;10.20;;;;;;5020844;28;20409;-81
2022/07/06 10:43:01;;;;;;;4.03;1.00;;;30.90;1.00;;;;;;5006391;28;20449;-81
2022/07/06 10:45:26;;;;;;;5.00;0.80;;;30.00;1.00;;;;;;5006644;28;20426;-81
2022/07/06 10:48:10;;;;;;;2.20;0.80;;;30.10;1.00;;;;;;5021013;28;20413;-81
2022/07/06 10:50:37;;;;;;;2.50;0.97;;;30.00;1.00;;;;;;5018374;28;20867;-81
2022/07/06 10:53:09;;;;;;;2.70;0.90;;;31.50;2.40;;;;;;5018650;28;20466;-82
2022/07/06 10:55:36;;;;;;;2.53;0.73;;;33.20;7.30;;;;;;5018014;28;20973;-82
2022/07/06 10:58:03;;;;;;;3.00;0.70;;;34.90;21.20;;;;;;5019663;28;20403;-82
2022/07/06 11:00:51;;;;;;;3.97;0.80;;;36.00;13.70;;;;;;5020723;28;20418;-82
2022/07/06 11:03:37;;;;;;;1.93;0.80;;;36.50;13.40;;;;;;5016501;28;20959;-82
2022/07/06 11:06:07;;;;;;;1.67;0.80;;;36.00;11.20;;;;;;5013997;28;20486;-82
2022/07/06 11:08:46;;;;;;;1.90;0.70;;;35.30;9.40;;;;;;5016151;28;20454;-82
2022/07/06 11:11:18;;;;;;;2.17;0.97;;;34.50;6.80;;;;;;5013108;28;20544;-82
2022/07/06 11:13:55;;;;;;;4.07;0.97;;;33.80;5.60;;;;;;5017120;28;20485;-81
2022/07/06 11:16:25;;;;;;;2.07;1.10;;;33.10;3.80;;;;;;5010485;28;20504;-82
2022/07/06 11:19:15;;;;;;;4.10;0.80;;;32.50;3.20;;;;;;5016563;28;20422;-81
2022/07/06 11:21:45;;;;;;;2.03;1.00;;;31.80;1.40;;;;;;5005157;28;20439;-81
2022/07/06 11:24:14;;;;;;;2.67;0.80;;;31.30;1.00;;;;;;5013083;28;20967;-81
2022/07/06 11:26:42;;;;;;;3.73;1.10;;;31.20;1.00;;;;;;5010460;28;20794;-82
2022/07/06 11:29:10;;;;;;;2.23;0.90;;;31.10;1.00;;;;;;4997090;28;20575;-81
2022/07/06 11:31:38;;;;;;;1.80;0.80;;;30.90;1.00;;;;;;5015558;28;20498;-81
2022/07/06 11:34:05;;;;;;;2.20;0.70;;;30.80;1.30;;;;;;5017427;28;20428;-81
2022/07/06 11:36:31;;;;;;;2.17;0.97;;;31.00;1.50;;;;;;4999584;28;20426;-81
2022/07/06 11:38:57;;;;;;;1.80;0.80;;;31.00;2.00;;;;;;5008232;28;20528;-81
2022/07/06 11:41:22;;;;;;;2.53;0.80;;;30.80;1.00;;;;;;5009900;28;20461;-81
2022/07/06 11:43:51;;;;;;;3.17;1.00;;;30.70;1.00;;;;;;5024052;28;20210;-81
2022/07/06 11:46:36;;;;;;;1.80;0.80;;;30.50;1.00;;;;;;5015673;28;20194;-82
2022/07/06 11:49:09;;;;;;;2.30;0.90;;;30.10;1.00;;;;;;5019130;28;20459;-81
2022/07/06 11:51:37;;;;;;;1.70;1.00;;;29.80;1.00;;;;;;5016054;28;20428;-81
2022/07/06 11:54:09;;;;;;;3.10;1.10;;;29.50;1.00;;;;;;5017232;28;20464;-81
2022/07/06 11:56:35;;;;;;;1.80;1.00;;;29.20;1.00;;;;;;4998691;28;20442;-81
2022/07/06 11:59:01;;;;;;;3.50;0.97;;;29.00;1.00;;;;;;5010490;28;20435;-81
2022/07/06 12:01:28;;;;;;;2.10;0.90;;;28.80;1.00;;;;;;5008100;28;20603;-81
2022/07/06 12:03:59;;;;;;;2.40;0.97;;;28.80;1.00;;;;;;5016251;28;20436;-81
2022/07/06 12:06:25;;;;;;;1.67;0.90;;;28.90;1.00;;;;;;5002298;28;20438;-82
2022/07/06 12:08:53;;;;;;;1.53;0.70;;;29.10;1.00;;;;;;5013061;28;20821;-81
2022/07/06 12:11:27;;;;;;;2.30;1.10;;;29.20;1.20;;;;;;5013999;28;20445;-82
2022/07/06 12:13:57;;;;;;;2.30;0.93;;;29.20;1.00;;;;;;5016661;28;20514;-82
2022/07/06 12:16:34;;;;;;;2.77;1.00;;;29.20;1.00;;;;;;5013775;28;20438;-82
2022/07/06 12:19:01;;;;;;;3.07;0.97;;;29.40;1.40;;;;;;5013264;28;20516;-81
2022/07/06 12:21:27;;;;;;;3.57;0.90;;;29.50;1.50;;;;;;5009493;28;20915;-81
2022/07/06 12:23:53;;;;;;;4.10;1.30;;;29.70;1.90;;;;;;4997439;28;20442;-81
2022/07/06 12:26:24;;;;;;;2.63;1.30;;;29.90;2.60;;;;;;4999421;28;20253;-81
2022/07/06 12:29:09;;;;;;;2.13;1.03;;;30.00;3.20;;;;;;5007788;28;20794;-81
2022/07/06 12:31:39;;;;;;;1.90;1.10;;;30.20;3.70;;;;;;4996791;28;20476;-80
2022/07/06 12:34:13;;;;;;;4.40;1.10;;;29.90;3.40;;;;;;5016723;28;20449;-81
2022/07/06 12:36:57;;;;;;;2.90;1.00;;;29.70;2.80;;;;;;5018462;28;20428;-81
2022/07/06 12:39:28;;;;;;;4.70;0.90;;;29.60;3.00;;;;;;5001210;28;20519;-81
2022/07/06 12:41:56;;;;;;;3.20;1.30;;;29.60;2.40;;;;;;5016662;28;21039;-81
2022/07/06 12:44:25;;;;;;;3.47;1.20;;;29.70;3.30;;;;;;5005489;28;20449;-80
2022/07/06 12:47:03;;;;;;;5.50;1.53;;;30.10;3.80;;;;;;5000367;28;20520;-82
2022/07/06 12:49:29;;;;;;;3.10;1.07;;;30.10;4.50;;;;;;5015252;28;20448;-82
2022/07/06 12:51:58;;;;;;;2.70;1.07;;;30.20;4.70;;;;;;5016155;28;20504;-82
2022/07/06 12:54:26;;;;;;;2.30;0.90;;;30.30;4.80;;;;;;5016118;28;20242;-82
2022/07/06 12:57:14;;;;;;;2.17;1.23;;;30.60;5.60;;;;;;5016725;28;20438;-82